sensor_id;sensor_type;location;lat;lon;timestamp;pressure;altitude;pressure_sealevel;temperature;humidity
40788;BME280;26497;52.494;7.546;2023-02-05T00:01:26;103059.00;;;7.07;65.23
40788;BME280;26497;52.494;7.546;2023-02-05T00:03:53;103049.56;;;6.94;65.06
40788;BME280;26497;52.494;7.546;2023-02-05T00:06:21;103044.59;;;6.83;65.42
40788;BME280;26497;52.494;7.546;2023-02-05T00:08:48;103036.88;;;6.86;65.49
40788;BME280;26497;52.494;7.546;2023-02-05T00:11:15;103030.31;;;6.77;65.45
40788;BME280;26497;52.494;7.546;2023-02-05T00:13:43;103028.53;;;6.76;65.78
40788;BME280;26497;52.494;7.546;2023-02-05T00:16:12;103021.63;;;6.78;65.70
40788;BME280;26497;52.494;7.546;2023-02-05T00:18:40;103014.00;;;6.83;65.60
40788;BME280;26497;52.494;7.546;2023-02-05T00:21:07;103008.84;;;6.85;65.69
40788;BME280;26497;52.494;7.546;2023-02-05T00:23:36;103010.16;;;6.93;65.64
40788;BME280;26497;52.494;7.546;2023-02-05T00:26:04;103003.94;;;6.91;65.45
40788;BME280;26497;52.494;7.546;2023-02-05T00:28:31;102999.19;;;6.84;65.55
40788;BME280;26497;52.494;7.546;2023-02-05T00:30:59;102991.16;;;6.81;65.44
40788;BME280;26497;52.494;7.546;2023-02-05T00:33:26;102982.47;;;6.82;65.46
40788;BME280;26497;52.494;7.546;2023-02-05T00:35:53;102983.34;;;6.66;65.58
40788;BME280;26497;52.494;7.546;2023-02-05T00:38:20;102968.69;;;6.69;65.74
40788;BME280;26497;52.494;7.546;2023-02-05T00:40:49;102964.59;;;6.74;65.72
40788;BME280;26497;52.494;7.546;2023-02-05T00:43:16;102951.47;;;6.74;65.55
40788;BME280;26497;52.494;7.546;2023-02-05T00:45:43;102946.97;;;6.72;65.47
40788;BME280;26497;52.494;7.546;2023-02-05T00:48:10;102960.50;;;6.79;65.52
40788;BME280;26497;52.494;7.546;2023-02-05T00:50:38;102954.00;;;6.73;65.33
40788;BME280;26497;52.494;7.546;2023-02-05T00:53:06;102949.19;;;6.64;65.46
40788;BME280;26497;52.494;7.546;2023-02-05T00:55:33;102943.78;;;6.61;65.58
40788;BME280;26497;52.494;7.546;2023-02-05T00:58:01;102962.09;;;6.59;65.37
40788;BME280;26497;52.494;7.546;2023-02-05T01:00:28;102965.09;;;6.67;65.43
40788;BME280;26497;52.494;7.546;2023-02-05T01:02:55;102964.28;;;6.68;65.39
40788;BME280;26497;52.494;7.546;2023-02-05T01:05:22;102979.69;;;6.62;65.97
40788;BME280;26497;52.494;7.546;2023-02-05T01:07:49;102971.22;;;6.68;65.98
40788;BME280;26497;52.494;7.546;2023-02-05T01:10:17;102962.78;;;6.73;66.11
40788;BME280;26497;52.494;7.546;2023-02-05T01:12:44;102966.63;;;6.80;65.99
40788;BME280;26497;52.494;7.546;2023-02-05T01:15:12;102948.75;;;6.89;66.02
40788;BME280;26497;52.494;7.546;2023-02-05T01:17:40;102950.78;;;6.95;65.86
40788;BME280;26497;52.494;7.546;2023-02-05T01:20:09;102943.31;;;7.03;65.77
40788;BME280;26497;52.494;7.546;2023-02-05T01:22:37;102947.31;;;7.13;65.67
40788;BME280;26497;52.494;7.546;2023-02-05T01:25:05;102946.84;;;7.21;65.82
40788;BME280;26497;52.494;7.546;2023-02-05T01:27:32;102930.38;;;7.24;65.46
40788;BME280;26497;52.494;7.546;2023-02-05T01:29:59;102933.88;;;7.25;65.58
40788;BME280;26497;52.494;7.546;2023-02-05T01:32:28;102918.13;;;7.25;65.71
40788;BME280;26497;52.494;7.546;2023-02-05T01:34:55;102915.88;;;7.32;65.46
40788;BME280;26497;52.494;7.546;2023-02-05T01:37:22;102919.94;;;7.26;65.43
40788;BME280;26497;52.494;7.546;2023-02-05T01:39:49;102912.16;;;7.27;65.36
40788;BME280;26497;52.494;7.546;2023-02-05T01:42:19;102925.41;;;7.30;65.40
40788;BME280;26497;52.494;7.546;2023-02-05T01:48:20;102929.56;;;7.25;65.62
40788;BME280;26497;52.494;7.546;2023-02-05T01:50:51;102942.38;;;7.19;66.07
40788;BME280;26497;52.494;7.546;2023-02-05T01:53:25;102929.81;;;7.31;65.75
40788;BME280;26497;52.494;7.546;2023-02-05T01:55:56;102938.09;;;7.21;66.04
40788;BME280;26497;52.494;7.546;2023-02-05T01:58:26;102941.31;;;7.33;65.96
40788;BME280;26497;52.494;7.546;2023-02-05T02:00:56;102945.38;;;7.45;65.49
40788;BME280;26497;52.494;7.546;2023-02-05T02:03:26;102929.56;;;7.43;65.90
40788;BME280;26497;52.494;7.546;2023-02-05T02:05:54;102929.19;;;7.53;65.78
40788;BME280;26497;52.494;7.546;2023-02-05T02:08:21;102936.13;;;7.53;65.69
40788;BME280;26497;52.494;7.546;2023-02-05T02:10:49;102927.97;;;7.65;65.58
40788;BME280;26497;52.494;7.546;2023-02-05T02:13:18;102922.56;;;7.62;65.49
40788;BME280;26497;52.494;7.546;2023-02-05T02:15:46;102922.47;;;7.60;65.82
40788;BME280;26497;52.494;7.546;2023-02-05T02:18:15;102912.41;;;7.70;65.41
40788;BME280;26497;52.494;7.546;2023-02-05T02:21:41;102910.69;;;7.70;65.24
40788;BME280;26497;52.494;7.546;2023-02-05T02:24:33;102917.81;;;7.73;65.23
40788;BME280;26497;52.494;7.546;2023-02-05T02:30:17;102904.91;;;7.77;65.51
40788;BME280;26497;52.494;7.546;2023-02-05T02:32:54;102887.69;;;7.84;65.26
40788;BME280;26497;52.494;7.546;2023-02-05T02:35:30;102873.78;;;7.67;65.06
40788;BME280;26497;52.494;7.546;2023-02-05T02:38:07;102867.19;;;7.57;65.25
40788;BME280;26497;52.494;7.546;2023-02-05T02:40:39;102870.50;;;7.53;65.35
40788;BME280;26497;52.494;7.546;2023-02-05T02:43:10;102857.69;;;7.41;65.72
40788;BME280;26497;52.494;7.546;2023-02-05T02:45:46;102858.06;;;7.31;65.50
40788;BME280;26497;52.494;7.546;2023-02-05T02:48:19;102856.47;;;7.34;65.94
40788;BME280;26497;52.494;7.546;2023-02-05T02:50:49;102845.16;;;7.35;65.82
40788;BME280;26497;52.494;7.546;2023-02-05T02:53:21;102840.28;;;7.43;65.93
40788;BME280;26497;52.494;7.546;2023-02-05T02:55:49;102840.34;;;7.45;65.70
40788;BME280;26497;52.494;7.546;2023-02-05T02:58:21;102829.16;;;7.49;65.64
40788;BME280;26497;52.494;7.546;2023-02-05T03:00:51;102824.88;;;7.51;65.53
40788;BME280;26497;52.494;7.546;2023-02-05T03:03:21;102817.69;;;7.47;65.74
40788;BME280;26497;52.494;7.546;2023-02-05T03:05:52;102816.84;;;7.48;65.58
40788;BME280;26497;52.494;7.546;2023-02-05T03:08:22;102824.56;;;7.63;65.74
40788;BME280;26497;52.494;7.546;2023-02-05T03:10:55;102822.09;;;7.86;64.78
40788;BME280;26497;52.494;7.546;2023-02-05T03:13:24;102828.88;;;7.80;65.12
40788;BME280;26497;52.494;7.546;2023-02-05T03:15:52;102835.97;;;7.83;65.18
40788;BME280;26497;52.494;7.546;2023-02-05T03:18:20;102822.03;;;7.84;65.10
40788;BME280;26497;52.494;7.546;2023-02-05T03:20:51;102821.44;;;7.72;65.33
40788;BME280;26497;52.494;7.546;2023-02-05T03:23:19;102810.25;;;7.76;65.41
40788;BME280;26497;52.494;7.546;2023-02-05T03:25:46;102815.78;;;7.62;65.44
40788;BME280;26497;52.494;7.546;2023-02-05T03:28:14;102821.59;;;7.75;65.41
40788;BME280;26497;52.494;7.546;2023-02-05T03:30:53;102813.31;;;7.85;65.51
40788;BME280;26497;52.494;7.546;2023-02-05T03:33:41;102816.47;;;7.78;65.40
40788;BME280;26497;52.494;7.546;2023-02-05T03:36:23;102810.22;;;7.74;65.82
40788;BME280;26497;52.494;7.546;2023-02-05T03:39:10;102809.09;;;7.69;65.45
40788;BME280;26497;52.494;7.546;2023-02-05T03:41:52;102799.41;;;7.68;65.77
40788;BME280;26497;52.494;7.546;2023-02-05T03:44:46;102806.47;;;7.89;65.19
40788;BME280;26497;52.494;7.546;2023-02-05T03:47:33;102815.31;;;7.71;65.25
40788;BME280;26497;52.494;7.546;2023-02-05T03:50:20;102822.81;;;7.63;65.67
40788;BME280;26497;52.494;7.546;2023-02-05T03:52:58;102819.22;;;7.61;65.43
40788;BME280;26497;52.494;7.546;2023-02-05T03:55:30;102827.41;;;7.67;65.36
40788;BME280;26497;52.494;7.546;2023-02-05T03:58:00;102816.06;;;7.68;65.70
40788;BME280;26497;52.494;7.546;2023-02-05T04:00:28;102822.28;;;7.90;65.31
40788;BME280;26497;52.494;7.546;2023-02-05T04:02:57;102821.78;;;7.99;65.08
40788;BME280;26497;52.494;7.546;2023-02-05T04:05:24;102817.19;;;7.93;64.90
40788;BME280;26497;52.494;7.546;2023-02-05T04:07:51;102819.16;;;7.99;64.52
40788;BME280;26497;52.494;7.546;2023-02-05T04:10:19;102810.13;;;7.73;65.18
40788;BME280;26497;52.494;7.546;2023-02-05T04:12:46;102818.63;;;7.67;65.83
40788;BME280;26497;52.494;7.546;2023-02-05T04:15:13;102829.88;;;7.64;65.92
40788;BME280;26497;52.494;7.546;2023-02-05T04:17:40;102829.81;;;7.63;66.11
40788;BME280;26497;52.494;7.546;2023-02-05T04:23:49;102812.38;;;7.45;67.40
40788;BME280;26497;52.494;7.546;2023-02-05T04:26:16;102822.06;;;7.46;67.80
40788;BME280;26497;52.494;7.546;2023-02-05T04:28:43;102810.72;;;7.47;68.35
40788;BME280;26497;52.494;7.546;2023-02-05T04:31:11;102811.94;;;7.36;68.82
40788;BME280;26497;52.494;7.546;2023-02-05T04:33:39;102805.78;;;7.35;69.46
40788;BME280;26497;52.494;7.546;2023-02-05T04:36:07;102808.53;;;7.57;68.62
40788;BME280;26497;52.494;7.546;2023-02-05T04:38:34;102807.63;;;7.76;68.63
40788;BME280;26497;52.494;7.546;2023-02-05T04:41:03;102806.53;;;7.90;68.18
40788;BME280;26497;52.494;7.546;2023-02-05T04:43:30;102790.25;;;7.99;67.67
40788;BME280;26497;52.494;7.546;2023-02-05T04:45:57;102795.75;;;7.84;68.08
40788;BME280;26497;52.494;7.546;2023-02-05T04:48:29;102804.03;;;7.74;69.07
40788;BME280;26497;52.494;7.546;2023-02-05T04:50:56;102795.06;;;7.88;68.87
40788;BME280;26497;52.494;7.546;2023-02-05T04:53:24;102789.38;;;7.99;68.68
40788;BME280;26497;52.494;7.546;2023-02-05T04:55:51;102788.69;;;7.83;69.05
40788;BME280;26497;52.494;7.546;2023-02-05T04:58:20;102786.44;;;7.91;69.19
40788;BME280;26497;52.494;7.546;2023-02-05T05:00:47;102788.41;;;7.96;69.43
40788;BME280;26497;52.494;7.546;2023-02-05T05:03:14;102783.00;;;8.13;69.06
40788;BME280;26497;52.494;7.546;2023-02-05T05:05:41;102790.38;;;8.22;68.42
40788;BME280;26497;52.494;7.546;2023-02-05T05:08:08;102788.16;;;8.31;68.50
40788;BME280;26497;52.494;7.546;2023-02-05T05:10:37;102793.41;;;8.31;67.95
40788;BME280;26497;52.494;7.546;2023-02-05T05:13:04;102796.00;;;8.30;68.03
40788;BME280;26497;52.494;7.546;2023-02-05T05:15:32;102792.00;;;8.39;67.41
40788;BME280;26497;52.494;7.546;2023-02-05T05:17:59;102790.28;;;8.40;67.40
40788;BME280;26497;52.494;7.546;2023-02-05T05:20:26;102787.59;;;8.38;67.60
40788;BME280;26497;52.494;7.546;2023-02-05T05:22:54;102777.75;;;8.34;67.32
40788;BME280;26497;52.494;7.546;2023-02-05T05:25:21;102783.03;;;8.34;67.65
40788;BME280;26497;52.494;7.546;2023-02-05T05:27:48;102780.47;;;8.36;67.85
40788;BME280;26497;52.494;7.546;2023-02-05T05:30:15;102776.22;;;8.39;67.79
40788;BME280;26497;52.494;7.546;2023-02-05T05:32:44;102773.22;;;8.30;67.82
40788;BME280;26497;52.494;7.546;2023-02-05T05:35:10;102769.75;;;8.31;68.02
40788;BME280;26497;52.494;7.546;2023-02-05T05:37:37;102774.25;;;8.34;68.41
40788;BME280;26497;52.494;7.546;2023-02-05T05:40:06;102778.03;;;8.40;68.23
40788;BME280;26497;52.494;7.546;2023-02-05T05:42:50;102765.03;;;8.03;69.68
40788;BME280;26497;52.494;7.546;2023-02-05T05:45:35;102758.91;;;8.23;69.45
40788;BME280;26497;52.494;7.546;2023-02-05T05:48:04;102745.66;;;8.41;68.73
40788;BME280;26497;52.494;7.546;2023-02-05T05:50:31;102747.97;;;8.34;68.41
40788;BME280;26497;52.494;7.546;2023-02-05T05:52:58;102757.16;;;7.83;70.49
40788;BME280;26497;52.494;7.546;2023-02-05T05:55:25;102760.34;;;7.76;71.37
40788;BME280;26497;52.494;7.546;2023-02-05T05:57:52;102750.38;;;7.88;71.51
40788;BME280;26497;52.494;7.546;2023-02-05T06:00:19;102754.13;;;7.93;71.78
40788;BME280;26497;52.494;7.546;2023-02-05T06:02:46;102748.94;;;7.95;71.89
40788;BME280;26497;52.494;7.546;2023-02-05T06:05:15;102742.09;;;7.99;72.18
40788;BME280;26497;52.494;7.546;2023-02-05T06:07:42;102736.97;;;8.02;72.25
40788;BME280;26497;52.494;7.546;2023-02-05T06:10:09;102736.31;;;8.07;72.47
40788;BME280;26497;52.494;7.546;2023-02-05T06:12:36;102737.56;;;8.37;71.74
40788;BME280;26497;52.494;7.546;2023-02-05T06:15:04;102737.63;;;8.38;71.08
40788;BME280;26497;52.494;7.546;2023-02-05T06:17:31;102736.63;;;8.35;71.33
40788;BME280;26497;52.494;7.546;2023-02-05T06:19:58;102728.78;;;8.36;71.50
40788;BME280;26497;52.494;7.546;2023-02-05T06:22:27;102733.16;;;8.36;71.56
40788;BME280;26497;52.494;7.546;2023-02-05T06:24:54;102725.84;;;8.29;71.74
40788;BME280;26497;52.494;7.546;2023-02-05T06:27:20;102724.16;;;8.31;71.73
40788;BME280;26497;52.494;7.546;2023-02-05T06:29:47;102725.00;;;8.30;72.04
40788;BME280;26497;52.494;7.546;2023-02-05T06:32:14;102719.66;;;8.28;72.16
40788;BME280;26497;52.494;7.546;2023-02-05T06:34:41;102712.09;;;8.15;72.49
40788;BME280;26497;52.494;7.546;2023-02-05T06:37:08;102721.16;;;8.21;72.67
40788;BME280;26497;52.494;7.546;2023-02-05T06:39:37;102713.22;;;8.41;72.36
40788;BME280;26497;52.494;7.546;2023-02-05T06:42:04;102713.91;;;8.37;71.86
40788;BME280;26497;52.494;7.546;2023-02-05T06:44:32;102705.44;;;8.44;72.18
40788;BME280;26497;52.494;7.546;2023-02-05T06:46:59;102709.63;;;8.60;71.85
40788;BME280;26497;52.494;7.546;2023-02-05T06:49:26;102695.34;;;8.53;71.52
40788;BME280;26497;52.494;7.546;2023-02-05T06:51:53;102704.19;;;8.55;71.63
40788;BME280;26497;52.494;7.546;2023-02-05T06:54:20;102696.59;;;8.42;72.15
40788;BME280;26497;52.494;7.546;2023-02-05T06:56:48;102705.06;;;8.35;72.51
40788;BME280;26497;52.494;7.546;2023-02-05T06:59:15;102700.81;;;8.38;72.75
40788;BME280;26497;52.494;7.546;2023-02-05T07:01:42;102706.03;;;8.58;72.37
40788;BME280;26497;52.494;7.546;2023-02-05T07:04:09;102707.25;;;8.45;72.39
40788;BME280;26497;52.494;7.546;2023-02-05T07:06:36;102705.38;;;8.43;72.51
40788;BME280;26497;52.494;7.546;2023-02-05T07:09:03;102708.56;;;8.35;73.02
40788;BME280;26497;52.494;7.546;2023-02-05T07:11:30;102701.59;;;8.36;73.26
40788;BME280;26497;52.494;7.546;2023-02-05T07:14:01;102699.16;;;8.40;73.27
40788;BME280;26497;52.494;7.546;2023-02-05T07:16:29;102701.31;;;8.49;73.28
40788;BME280;26497;52.494;7.546;2023-02-05T07:18:56;102711.00;;;8.50;72.95
40788;BME280;26497;52.494;7.546;2023-02-05T07:21:23;102704.59;;;8.45;73.25
40788;BME280;26497;52.494;7.546;2023-02-05T07:23:50;102709.31;;;8.52;73.57
40788;BME280;26497;52.494;7.546;2023-02-05T07:26:17;102703.66;;;8.43;73.97
40788;BME280;26497;52.494;7.546;2023-02-05T07:28:44;102701.97;;;8.45;73.86
40788;BME280;26497;52.494;7.546;2023-02-05T07:31:15;102706.69;;;8.52;73.89
40788;BME280;26497;52.494;7.546;2023-02-05T07:33:44;102718.31;;;8.58;74.01
40788;BME280;26497;52.494;7.546;2023-02-05T07:36:14;102716.13;;;8.70;73.34
40788;BME280;26497;52.494;7.546;2023-02-05T07:38:43;102705.81;;;8.75;73.32
40788;BME280;26497;52.494;7.546;2023-02-05T07:41:12;102721.84;;;8.81;73.42
40788;BME280;26497;52.494;7.546;2023-02-05T07:43:40;102716.81;;;8.87;73.17
40788;BME280;26497;52.494;7.546;2023-02-05T07:46:10;102716.34;;;8.97;72.62
40788;BME280;26497;52.494;7.546;2023-02-05T07:48:38;102718.91;;;8.96;72.79
40788;BME280;26497;52.494;7.546;2023-02-05T07:51:06;102717.72;;;8.88;73.41
40788;BME280;26497;52.494;7.546;2023-02-05T07:53:33;102721.97;;;8.84;73.53
40788;BME280;26497;52.494;7.546;2023-02-05T07:56:02;102721.75;;;9.00;73.33
40788;BME280;26497;52.494;7.546;2023-02-05T07:58:29;102722.84;;;9.07;72.49
40788;BME280;26497;52.494;7.546;2023-02-05T08:00:59;102722.22;;;9.13;72.53
40788;BME280;26497;52.494;7.546;2023-02-05T08:03:27;102717.19;;;8.96;72.93
40788;BME280;26497;52.494;7.546;2023-02-05T08:05:56;102725.44;;;8.62;76.12
40788;BME280;26497;52.494;7.546;2023-02-05T08:08:23;102719.72;;;8.72;77.12
40788;BME280;26497;52.494;7.546;2023-02-05T08:11:00;102729.38;;;8.94;77.21
40788;BME280;26497;52.494;7.546;2023-02-05T08:13:28;102715.91;;;9.09;77.88
40788;BME280;26497;52.494;7.546;2023-02-05T08:15:55;102713.88;;;9.25;78.54
40788;BME280;26497;52.494;7.546;2023-02-05T08:18:23;102720.00;;;9.48;78.83
40788;BME280;26497;52.494;7.546;2023-02-05T08:20:51;102714.28;;;9.60;78.87
40788;BME280;26497;52.494;7.546;2023-02-05T08:23:20;102716.31;;;9.67;78.76
40788;BME280;26497;52.494;7.546;2023-02-05T08:25:47;102719.44;;;9.81;78.44
40788;BME280;26497;52.494;7.546;2023-02-05T08:28:18;102721.53;;;9.90;78.74
40788;BME280;26497;52.494;7.546;2023-02-05T08:30:45;102713.88;;;9.98;78.54
40788;BME280;26497;52.494;7.546;2023-02-05T08:33:12;102720.50;;;10.12;78.15
40788;BME280;26497;52.494;7.546;2023-02-05T08:35:39;102706.06;;;10.27;77.85
40788;BME280;26497;52.494;7.546;2023-02-05T08:38:06;102714.97;;;10.30;77.46
40788;BME280;26497;52.494;7.546;2023-02-05T08:40:35;102712.28;;;10.29;77.43
40788;BME280;26497;52.494;7.546;2023-02-05T08:43:05;102715.38;;;10.41;77.70
40788;BME280;26497;52.494;7.546;2023-02-05T08:45:33;102715.88;;;10.57;77.09
40788;BME280;26497;52.494;7.546;2023-02-05T08:48:00;102712.75;;;10.70;76.19
40788;BME280;26497;52.494;7.546;2023-02-05T08:50:27;102717.16;;;10.70;76.47
40788;BME280;26497;52.494;7.546;2023-02-05T08:52:54;102714.44;;;10.68;76.13
40788;BME280;26497;52.494;7.546;2023-02-05T08:55:21;102717.84;;;10.91;75.11
40788;BME280;26497;52.494;7.546;2023-02-05T08:57:49;102714.63;;;11.02;74.72
40788;BME280;26497;52.494;7.546;2023-02-05T09:00:17;102716.69;;;11.12;73.95
40788;BME280;26497;52.494;7.546;2023-02-05T09:02:46;102714.34;;;10.93;73.90
40788;BME280;26497;52.494;7.546;2023-02-05T09:05:13;102722.00;;;10.85;74.68
40788;BME280;26497;52.494;7.546;2023-02-05T09:07:40;102711.34;;;10.82;75.26
40788;BME280;26497;52.494;7.546;2023-02-05T09:10:09;102713.13;;;10.83;75.14
40788;BME280;26497;52.494;7.546;2023-02-05T09:12:36;102708.19;;;10.65;76.14
40788;BME280;26497;52.494;7.546;2023-02-05T09:15:05;102710.97;;;10.69;76.41
40788;BME280;26497;52.494;7.546;2023-02-05T09:17:33;102703.97;;;10.70;76.44
40788;BME280;26497;52.494;7.546;2023-02-05T09:20:00;102700.56;;;10.74;76.63
40788;BME280;26497;52.494;7.546;2023-02-05T09:22:27;102703.06;;;10.98;75.53
40788;BME280;26497;52.494;7.546;2023-02-05T09:24:54;102703.31;;;11.06;75.14
40788;BME280;26497;52.494;7.546;2023-02-05T09:27:21;102703.44;;;11.11;74.51
40788;BME280;26497;52.494;7.546;2023-02-05T09:29:48;102705.75;;;11.00;74.92
40788;BME280;26497;52.494;7.546;2023-02-05T09:32:16;102700.69;;;10.79;75.33
40788;BME280;26497;52.494;7.546;2023-02-05T09:34:43;102698.81;;;11.03;75.36
40788;BME280;26497;52.494;7.546;2023-02-05T09:37:10;102706.94;;;11.10;75.00
40788;BME280;26497;52.494;7.546;2023-02-05T09:39:37;102710.13;;;11.28;74.51
40788;BME280;26497;52.494;7.546;2023-02-05T09:42:12;102709.84;;;11.49;73.07
40788;BME280;26497;52.494;7.546;2023-02-05T09:45:00;102714.25;;;11.50;72.98
40788;BME280;26497;52.494;7.546;2023-02-05T09:47:33;102722.53;;;11.63;72.50
40788;BME280;26497;52.494;7.546;2023-02-05T09:50:11;102730.22;;;11.54;72.96
40788;BME280;26497;52.494;7.546;2023-02-05T09:52:43;102726.81;;;11.58;72.71
40788;BME280;26497;52.494;7.546;2023-02-05T09:55:19;102740.88;;;11.57;72.75
40788;BME280;26497;52.494;7.546;2023-02-05T09:57:47;102744.63;;;11.65;72.60
40788;BME280;26497;52.494;7.546;2023-02-05T10:00:23;102742.25;;;11.74;72.94
40788;BME280;26497;52.494;7.546;2023-02-05T10:03:00;102748.13;;;11.96;72.89
40788;BME280;26497;52.494;7.546;2023-02-05T10:05:40;102754.34;;;12.30;72.83
40788;BME280;26497;52.494;7.546;2023-02-05T10:08:19;102773.66;;;12.28;72.65
40788;BME280;26497;52.494;7.546;2023-02-05T10:10:49;102777.25;;;12.30;72.02
40788;BME280;26497;52.494;7.546;2023-02-05T10:13:34;102775.28;;;12.22;70.71
40788;BME280;26497;52.494;7.546;2023-02-05T10:19:18;102778.00;;;11.93;71.54
40788;BME280;26497;52.494;7.546;2023-02-05T10:22:05;102790.16;;;11.85;72.55
40788;BME280;26497;52.494;7.546;2023-02-05T10:25:21;102794.16;;;12.03;71.88
40788;BME280;26497;52.494;7.546;2023-02-05T10:27:56;102803.81;;;11.70;72.75
40788;BME280;26497;52.494;7.546;2023-02-05T10:30:33;102803.72;;;11.67;72.13
40788;BME280;26497;52.494;7.546;2023-02-05T10:33:07;102810.03;;;11.72;71.64
40788;BME280;26497;52.494;7.546;2023-02-05T10:35:47;102827.66;;;11.43;72.55
40788;BME280;26497;52.494;7.546;2023-02-05T10:38:23;102827.78;;;10.64;75.36
40788;BME280;26497;52.494;7.546;2023-02-05T10:40:54;102835.97;;;10.99;74.68
40788;BME280;26497;52.494;7.546;2023-02-05T10:43:27;102844.75;;;10.98;74.52
40788;BME280;26497;52.494;7.546;2023-02-05T10:45:56;102854.69;;;10.79;75.49
40788;BME280;26497;52.494;7.546;2023-02-05T10:48:38;102855.75;;;10.84;75.75
40788;BME280;26497;52.494;7.546;2023-02-05T10:51:11;102857.66;;;10.88;75.47
40788;BME280;26497;52.494;7.546;2023-02-05T10:53:39;102862.94;;;11.16;74.12
40788;BME280;26497;52.494;7.546;2023-02-05T10:56:07;102876.66;;;10.78;74.87
40788;BME280;26497;52.494;7.546;2023-02-05T10:58:44;102877.47;;;11.03;74.59
40788;BME280;26497;52.494;7.546;2023-02-05T11:01:16;102878.78;;;10.90;74.88
40788;BME280;26497;52.494;7.546;2023-02-05T11:03:51;102895.03;;;11.01;74.75
40788;BME280;26497;52.494;7.546;2023-02-05T11:06:22;102891.44;;;10.24;77.49
40788;BME280;26497;52.494;7.546;2023-02-05T11:08:50;102900.81;;;10.65;76.29
40788;BME280;26497;52.494;7.546;2023-02-05T11:11:22;102900.63;;;10.84;76.06
40788;BME280;26497;52.494;7.546;2023-02-05T11:13:54;102920.56;;;11.02;74.75
40788;BME280;26497;52.494;7.546;2023-02-05T11:16:22;102918.66;;;10.72;75.42
40788;BME280;26497;52.494;7.546;2023-02-05T11:18:59;102920.16;;;9.69;78.42
40788;BME280;26497;52.494;7.546;2023-02-05T11:21:49;102932.41;;;9.69;78.40
40788;BME280;26497;52.494;7.546;2023-02-05T11:24:25;102934.34;;;9.73;79.63
40788;BME280;26497;52.494;7.546;2023-02-05T11:27:30;102931.81;;;9.76;78.92
40788;BME280;26497;52.494;7.546;2023-02-05T11:30:16;102943.06;;;9.72;77.82
40788;BME280;26497;52.494;7.546;2023-02-05T11:32:43;102946.38;;;9.22;79.07
40788;BME280;26497;52.494;7.546;2023-02-05T11:35:22;102962.53;;;9.53;79.37
40788;BME280;26497;52.494;7.546;2023-02-05T11:38:06;102965.38;;;9.80;77.35
40788;BME280;26497;52.494;7.546;2023-02-05T11:40:35;102969.84;;;10.06;76.40
40788;BME280;26497;52.494;7.546;2023-02-05T11:43:05;102964.56;;;10.06;76.48
40788;BME280;26497;52.494;7.546;2023-02-05T11:45:37;102983.56;;;10.20;75.04
40788;BME280;26497;52.494;7.546;2023-02-05T11:48:20;102974.34;;;10.08;74.56
40788;BME280;26497;52.494;7.546;2023-02-05T11:50:48;102985.22;;;9.93;75.62
40788;BME280;26497;52.494;7.546;2023-02-05T11:53:17;102979.97;;;10.17;75.24
40788;BME280;26497;52.494;7.546;2023-02-05T11:55:52;102976.66;;;10.46;73.80
40788;BME280;26497;52.494;7.546;2023-02-05T11:58:26;102981.75;;;9.73;75.69
40788;BME280;26497;52.494;7.546;2023-02-05T12:00:57;102977.69;;;9.81;75.79
40788;BME280;26497;52.494;7.546;2023-02-05T12:03:27;102969.00;;;10.29;74.33
40788;BME280;26497;52.494;7.546;2023-02-05T12:06:04;102961.13;;;10.54;73.58
40788;BME280;26497;52.494;7.546;2023-02-05T12:08:42;102969.59;;;10.69;72.42
40788;BME280;26497;52.494;7.546;2023-02-05T12:11:28;102974.25;;;10.76;72.15
40788;BME280;26497;52.494;7.546;2023-02-05T12:14:05;102974.91;;;10.95;71.72
40788;BME280;26497;52.494;7.546;2023-02-05T12:16:47;102972.09;;;10.90;72.19
40788;BME280;26497;52.494;7.546;2023-02-05T12:19:21;102973.19;;;10.47;73.28
40788;BME280;26497;52.494;7.546;2023-02-05T12:21:50;102976.44;;;10.40;73.40
40788;BME280;26497;52.494;7.546;2023-02-05T12:24:47;102960.50;;;11.11;72.87
40788;BME280;26497;52.494;7.546;2023-02-05T12:27:33;102956.47;;;11.50;70.39
40788;BME280;26497;52.494;7.546;2023-02-05T12:30:19;102952.63;;;11.97;68.79
40788;BME280;26497;52.494;7.546;2023-02-05T12:33:04;102939.41;;;12.26;68.78
40788;BME280;26497;52.494;7.546;2023-02-05T12:35:51;102929.69;;;12.57;65.64
40788;BME280;26497;52.494;7.546;2023-02-05T12:38:47;102930.53;;;12.89;65.04
40788;BME280;26497;52.494;7.546;2023-02-05T12:41:28;102942.75;;;12.82;62.51
40788;BME280;26497;52.494;7.546;2023-02-05T12:44:06;102946.97;;;12.76;63.73
40788;BME280;26497;52.494;7.546;2023-02-05T12:46:53;102948.97;;;12.51;63.80
40788;BME280;26497;52.494;7.546;2023-02-05T12:49:49;102956.16;;;12.57;63.61
40788;BME280;26497;52.494;7.546;2023-02-05T12:52:37;102963.16;;;12.54;63.75
40788;BME280;26497;52.494;7.546;2023-02-05T12:55:21;102967.03;;;12.35;63.94
40788;BME280;26497;52.494;7.546;2023-02-05T12:57:55;102960.84;;;12.35;64.08
40788;BME280;26497;52.494;7.546;2023-02-05T13:00:27;102948.78;;;12.45;63.83
40788;BME280;26497;52.494;7.546;2023-02-05T13:03:05;102955.53;;;12.99;61.07
40788;BME280;26497;52.494;7.546;2023-02-05T13:05:37;102963.28;;;13.26;58.26
40788;BME280;26497;52.494;7.546;2023-02-05T13:08:11;102958.56;;;12.81;57.32
40788;BME280;26497;52.494;7.546;2023-02-05T13:10:49;102956.91;;;12.85;57.27
40788;BME280;26497;52.494;7.546;2023-02-05T13:13:25;102961.88;;;12.72;58.23
40788;BME280;26497;52.494;7.546;2023-02-05T13:16:00;102970.56;;;13.35;59.97
40788;BME280;26497;52.494;7.546;2023-02-05T13:18:30;102984.03;;;13.80;56.20
40788;BME280;26497;52.494;7.546;2023-02-05T13:21:01;102968.88;;;14.14;51.60
40788;BME280;26497;52.494;7.546;2023-02-05T13:23:48;102961.44;;;13.59;53.83
40788;BME280;26497;52.494;7.546;2023-02-05T13:26:38;102985.25;;;14.36;52.38
40788;BME280;26497;52.494;7.546;2023-02-05T13:29:28;102990.16;;;14.17;50.04
40788;BME280;26497;52.494;7.546;2023-02-05T13:32:02;103000.38;;;14.83;50.75
40788;BME280;26497;52.494;7.546;2023-02-05T13:34:30;103003.28;;;14.97;52.46